Time;durP1;ratioP1;P1;durP2;ratioP2;P2;SDS_P1;SDS_P2;PMS_P1;PMS_P2;Temp;Humidity;BMP_temperature;BMP_pressure;BME280_temperature;BME280_humidity;BME280_pressure;Samples;Min_cycle;Max_cycle;Signal;HPM_P1;HPM_P2
2021/10/09 00:00:41;;;;;;;2.60;1.35;;;;;;;10.04;86.35;97541.22;5023990;28;20045;-61
2021/10/09 00:03:08;;;;;;;3.55;2.00;;;;;;;10.02;88.92;97533.25;5022170;28;20061;-60
2021/10/09 00:05:35;;;;;;;3.10;1.65;;;;;;;10.06;88.06;97534.19;5023371;28;20057;-60
2021/10/09 00:08:02;;;;;;;4.32;1.98;;;;;;;9.52;88.66;97512.88;5023770;28;20060;-60
2021/10/09 00:10:32;;;;;;;2.03;1.45;;;;;;;7.41;89.94;97154.00;5023301;28;20107;-60
2021/10/09 00:12:58;;;;;;;1.10;1.00;;;;;;;9.85;90.15;97536.34;5023686;28;20056;-61
2021/10/09 00:15:25;;;;;;;2.30;1.10;;;;;;;9.84;88.26;97537.53;5023340;28;20060;-61
2021/10/09 00:17:52;;;;;;;1.13;0.93;;;;;;;9.51;85.94;97523.16;5022492;28;20539;-60
2021/10/09 00:20:19;;;;;;;1.25;1.15;;;;;;;9.74;90.85;97531.69;5022614;28;20140;-61
2021/10/09 00:22:45;;;;;;;2.65;1.67;;;;;;;9.78;91.81;97538.94;5023530;28;20053;-60
2021/10/09 00:25:12;;;;;;;0.90;0.90;;;;;;;9.46;88.25;97481.09;5022086;28;20079;-61
2021/10/09 00:27:39;;;;;;;1.00;1.00;;;;;;;9.83;87.09;97535.91;5022181;28;20057;-61
2021/10/09 00:30:06;;;;;;;4.18;1.58;;;;;;;9.77;88.37;97548.38;5023458;28;20045;-60
2021/10/09 00:32:33;;;;;;;1.80;1.27;;;;;;;9.69;88.41;97532.75;5023129;28;20060;-60
2021/10/09 00:35:00;;;;;;;1.90;1.50;;;;;;;9.64;86.29;97543.25;5021997;28;20060;-61
2021/10/09 00:37:27;;;;;;;1.52;0.93;;;;;;;9.06;85.91;97530.88;5023602;28;20053;-60
2021/10/09 00:39:53;;;;;;;2.08;1.00;;;;;;;9.40;86.71;97527.56;5023540;28;20054;-60
2021/10/09 00:42:20;;;;;;;0.98;0.90;;;;;;;9.44;85.02;97522.16;5022078;28;20061;-60
2021/10/09 00:44:47;;;;;;;1.67;1.00;;;;;;;9.08;86.52;97504.53;5021754;28;20056;-61
2021/10/09 00:47:15;;;;;;;2.30;1.10;;;;;;;9.52;88.06;97530.28;5023337;28;20511;-60
2021/10/09 00:49:43;;;;;;;1.15;1.10;;;;;;;9.48;87.07;97526.63;5023076;28;20060;-60
2021/10/09 00:52:13;;;;;;;1.90;0.80;;;;;;;8.92;85.17;97466.91;5023136;28;20064;-60
2021/10/09 00:54:45;;;;;;;1.35;0.82;;;;;;;9.27;86.86;97517.69;5023597;28;20452;-61
2021/10/09 00:57:16;;;;;;;0.80;0.80;;;;;;;9.23;87.51;97512.06;5026930;28;20448;-61
2021/10/09 00:59:43;;;;;;;1.05;0.90;;;;;;;9.13;85.31;97520.06;5026955;28;20499;-61
2021/10/09 01:02:10;;;;;;;2.10;0.90;;;;;;;9.24;85.75;97518.41;5027145;28;20068;-61
2021/10/09 01:04:37;;;;;;;1.92;0.70;;;;;;;9.34;88.33;97517.94;5025196;28;20093;-61
2021/10/09 01:07:05;;;;;;;2.58;0.90;;;;;;;8.86;85.22;97437.91;5026728;28;20045;-61
2021/10/09 01:09:33;;;;;;;1.05;0.80;;;;;;;9.12;85.92;97472.25;5026624;28;20508;-61
2021/10/09 01:12:01;;;;;;;1.50;0.82;;;;;;;9.32;83.77;97492.59;5027033;28;20076;-61
2021/10/09 01:14:28;;;;;;;0.80;0.70;;;;;;;9.46;83.83;97506.81;5027376;28;20068;-61
2021/10/09 01:16:55;;;;;;;1.25;0.93;;;;;;;9.53;85.59;97526.34;5026609;28;20057;-61
2021/10/09 01:19:21;;;;;;;0.95;0.95;;;;;;;9.69;88.93;97518.13;5026867;28;20049;-61
2021/10/09 01:21:49;;;;;;;3.47;1.20;;;;;;;9.52;84.66;97491.56;5008919;28;20067;-61
2021/10/09 01:24:17;;;;;;;2.08;0.80;;;;;;;9.24;87.51;97424.44;5033526;28;20468;-61
2021/10/09 01:26:44;;;;;;;1.00;1.00;;;;;;;9.75;84.43;97500.09;5026383;28;20395;-61
2021/10/09 01:29:12;;;;;;;1.88;1.10;;;;;;;9.62;85.95;97468.94;5026164;28;20053;-61
2021/10/09 01:31:39;;;;;;;1.00;1.00;;;;;;;7.51;84.61;97365.78;5026784;28;20115;-61
2021/10/09 01:34:06;;;;;;;1.70;1.10;;;;;;;9.41;84.54;97473.06;5025277;28;20065;-61
2021/10/09 01:36:36;;;;;;;1.33;1.10;;;;;;;9.81;85.68;97509.75;5025141;28;20049;-61
2021/10/09 01:39:07;;;;;;;2.08;1.15;;;;;;;9.52;84.16;97452.84;5026606;28;20054;-61
2021/10/09 01:41:49;;;;;;;3.85;1.23;;;;;;;9.67;86.57;97454.88;5025543;28;20061;-61
2021/10/09 01:44:17;;;;;;;1.30;1.20;;;;;;;9.77;83.88;97475.66;5002637;28;20529;-61
2021/10/09 01:46:43;;;;;;;1.15;1.00;;;;;;;9.99;83.42;97500.75;5038383;28;20520;-60
2021/10/09 01:49:10;;;;;;;1.42;0.90;;;;;;;9.76;81.27;97496.19;5026590;28;20060;-60
2021/10/09 01:51:37;;;;;;;0.90;0.90;;;;;;;9.87;82.91;97492.53;5026106;28;20053;-62
2021/10/09 01:54:04;;;;;;;1.08;0.98;;;;;;;9.58;86.29;97445.91;5024782;28;20591;-60
2021/10/09 01:56:31;;;;;;;0.90;0.90;;;;;;;9.80;85.34;97500.63;5025843;28;20060;-61
2021/10/09 01:58:58;;;;;;;0.90;0.90;;;;;;;9.85;85.53;97494.84;5026302;28;20080;-61
2021/10/09 02:01:24;;;;;;;3.63;1.27;;;;;;;9.66;83.74;97514.09;5025302;28;20061;-61
2021/10/09 02:03:51;;;;;;;0.95;0.93;;;;;;;9.26;83.06;97444.25;5024302;28;20084;-61
2021/10/09 02:06:18;;;;;;;1.85;1.70;;;;;;;9.85;82.46;97505.09;5025393;28;20061;-61
2021/10/09 02:08:45;;;;;;;5.55;1.85;;;;;;;9.83;82.15;97513.75;5008878;28;20361;-61
2021/10/09 02:11:18;;;;;;;1.80;1.10;;;;;;;9.89;82.41;97511.56;5032672;28;20057;-60
2021/10/09 02:14:15;;;;;;;0.80;0.80;;;;;;;9.60;81.51;97496.16;5024837;28;20049;-60
2021/10/09 02:27:18;;;;;;;0.95;0.80;;;;;;;9.97;81.72;97519.72;5025406;28;20041;-61
2021/10/09 02:29:44;;;;;;;1.83;1.15;;;;;;;9.53;85.15;97443.38;5024248;28;20417;-61
2021/10/09 02:32:11;;;;;;;1.48;1.15;;;;;;;10.06;86.12;97511.22;5025516;28;20068;-61
2021/10/09 02:34:38;;;;;;;1.98;1.50;;;;;;;9.97;84.76;97507.81;5024061;28;20065;-62
2021/10/09 02:37:04;;;;;;;1.75;1.20;;;;;;;9.86;84.14;97518.63;5025180;28;20060;-61
2021/10/09 02:39:31;;;;;;;2.58;1.40;;;;;;;9.84;81.99;97514.56;5024567;28;20055;-61
2021/10/09 02:41:58;;;;;;;2.97;1.80;;;;;;;9.43;85.62;97454.97;5025078;28;20486;-61
2021/10/09 02:44:24;;;;;;;2.30;1.85;;;;;;;9.45;85.14;97463.75;5025408;28;20053;-60
2021/10/09 02:46:51;;;;;;;2.13;1.60;;;;;;;9.55;83.60;97479.78;5025352;28;20512;-61
2021/10/09 02:49:18;;;;;;;1.92;1.23;;;;;;;9.75;83.79;97512.00;5023901;28;20045;-61
2021/10/09 02:51:45;;;;;;;3.58;1.67;;;;;;;8.98;85.48;97415.75;5025371;28;20069;-61
2021/10/09 02:54:11;;;;;;;4.75;1.70;;;;;;;9.55;87.35;97507.44;5024811;28;20898;-61
2021/10/09 02:56:38;;;;;;;2.72;1.60;;;;;;;8.95;88.35;97405.41;5024952;28;20046;-60
2021/10/09 02:59:05;;;;;;;4.30;2.05;;;;;;;9.67;89.52;97510.19;5025033;28;20057;-61
2021/10/09 03:01:31;;;;;;;3.67;1.90;;;;;;;9.45;87.12;97496.91;5024857;28;20045;-61
2021/10/09 03:03:58;;;;;;;3.63;1.50;;;;;;;9.57;89.29;97505.16;5025307;28;20098;-61
2021/10/09 03:06:25;;;;;;;3.03;1.40;;;;;;;9.80;87.00;97508.94;5025000;28;20057;-60
2021/10/09 03:08:52;;;;;;;2.40;1.55;;;;;;;9.59;83.90;97518.63;5024814;28;20049;-61
2021/10/09 03:11:18;;;;;;;4.35;1.63;;;;;;;9.68;85.61;97505.44;5023355;28;20554;-60
2021/10/09 03:13:45;;;;;;;1.40;1.30;;;;;;;8.87;84.89;97381.50;5024688;28;20068;-61
2021/10/09 03:16:12;;;;;;;2.40;1.85;;;;;;;9.60;85.07;97496.16;5024263;28;20063;-61
2021/10/09 03:18:39;;;;;;;2.25;1.83;;;;;;;9.86;87.20;97517.81;5024419;28;21039;-60
2021/10/09 03:21:05;;;;;;;1.30;1.20;;;;;;;9.87;85.77;97514.69;5024690;28;20417;-60
2021/10/09 03:23:32;;;;;;;1.20;1.10;;;;;;;9.85;85.80;97522.53;5024689;28;20049;-62
2021/10/09 03:25:59;;;;;;;3.65;1.85;;;;;;;9.84;85.93;97504.31;5023010;28;20075;-60
2021/10/09 03:28:25;;;;;;;2.08;1.70;;;;;;;9.61;85.99;97483.91;5024371;28;20057;-61
2021/10/09 03:30:52;;;;;;;2.20;1.70;;;;;;;9.40;87.11;97439.09;5024106;28;20050;-61
2021/10/09 03:33:19;;;;;;;3.80;1.90;;;;;;;9.69;86.62;97524.44;5024230;28;20060;-61
2021/10/09 03:35:46;;;;;;;5.07;1.80;;;;;;;9.19;88.18;97449.53;5024286;28;20060;-62
2021/10/09 03:38:13;;;;;;;2.15;1.45;;;;;;;9.58;88.03;97526.09;5022406;28;20054;-61
2021/10/09 03:40:42;;;;;;;2.22;1.50;;;;;;;9.45;89.60;97523.75;5024181;28;20479;-61
2021/10/09 03:43:12;;;;;;;1.20;1.10;;;;;;;9.40;90.24;97519.28;5023983;28;20075;-61
2021/10/09 03:45:52;;;;;;;3.40;1.63;;;;;;;9.19;89.09;97499.28;5023807;28;20479;-61
2021/10/09 03:53:49;;;;;;;1.48;1.15;;;;;;;9.31;96.70;97523.34;5023579;28;20091;-60
2021/10/09 03:56:15;;;;;;;2.60;1.60;;;;;;;9.33;97.21;97532.06;5023454;28;20436;-59
2021/10/09 03:58:42;;;;;;;2.72;1.25;;;;;;;9.37;96.41;97533.81;5023870;28;20053;-59
2021/10/09 04:01:09;;;;;;;2.05;1.80;;;;;;;7.03;99.26;97170.16;5022017;28;20053;-59
2021/10/09 04:03:36;;;;;;;3.85;2.50;;;;;;;9.33;100.00;97527.34;5023879;28;20092;-60
2021/10/09 04:06:02;;;;;;;4.40;2.22;;;;;;;9.36;100.00;97532.19;5023830;28;20462;-60
2021/10/09 04:08:29;;;;;;;2.55;1.75;;;;;;;9.39;100.00;97537.00;5022114;28;20061;-60
2021/10/09 04:10:56;;;;;;;5.05;2.53;;;;;;;9.39;100.00;97531.47;5023561;28;20429;-60
2021/10/09 04:13:22;;;;;;;5.75;3.20;;;;;;;9.44;100.00;97528.47;5022307;28;20508;-60
2021/10/09 04:15:49;;;;;;;4.03;2.15;;;;;;;9.42;100.00;97533.53;5021647;28;20049;-60
2021/10/09 04:18:16;;;;;;;7.72;2.70;;;;;;;9.34;100.00;97528.97;5023665;28;20053;-60
2021/10/09 04:20:43;;;;;;;5.50;1.73;;;;;;;9.34;100.00;97517.94;5024164;28;20049;-60
2021/10/09 04:23:10;;;;;;;6.93;3.08;;;;;;;8.99;97.98;97483.69;5023810;28;20511;-60
2021/10/09 04:25:36;;;;;;;5.60;2.95;;;;;;;9.34;100.00;97556.63;5022098;28;20060;-60
2021/10/09 04:28:04;;;;;;;18.65;7.50;;;;;;;9.42;100.00;97530.78;5023155;28;20053;-60
2021/10/09 04:30:31;;;;;;;18.75;7.60;;;;;;;9.52;100.00;97541.34;5022634;28;20483;-59
2021/10/09 04:32:57;;;;;;;15.55;5.25;;;;;;;9.50;100.00;97538.13;5027812;28;20053;-59
2021/10/09 04:35:24;;;;;;;19.77;5.63;;;;;;;9.57;100.00;97537.53;5027177;28;20500;-59
2021/10/09 04:37:51;;;;;;;22.58;6.45;;;;;;;9.34;100.00;97506.88;5026305;28;20493;-60
2021/10/09 04:40:18;;;;;;;12.43;5.07;;;;;;;9.59;100.00;97549.03;5027491;28;20053;-60
2021/10/09 04:42:44;;;;;;;5.25;3.30;;;;;;;9.63;100.00;97542.44;5025889;28;20053;-61
2021/10/09 04:45:11;;;;;;;3.45;3.08;;;;;;;9.63;100.00;97547.16;5026977;28;20060;-59
2021/10/09 04:47:38;;;;;;;5.15;2.78;;;;;;;9.71;100.00;97555.34;5027115;28;20053;-60
2021/10/09 04:50:05;;;;;;;4.13;2.50;;;;;;;9.64;100.00;97552.34;5027152;28;20057;-60
2021/10/09 04:52:32;;;;;;;5.47;2.63;;;;;;;9.47;100.00;97560.94;5026851;28;20431;-60
2021/10/09 04:54:59;;;;;;;6.47;3.92;;;;;;;7.47;100.00;97231.75;5026952;28;20049;-59
2021/10/09 04:57:25;;;;;;;12.20;6.55;;;;;;;9.52;100.00;97557.94;5027304;28;20056;-60
2021/10/09 04:59:53;;;;;;;14.98;8.05;;;;;;;9.55;100.00;97556.44;5026929;28;20054;-60
2021/10/09 05:02:20;;;;;;;10.75;4.90;;;;;;;9.54;100.00;97566.69;5024706;28;20046;-60
2021/10/09 05:04:47;;;;;;;8.00;4.70;;;;;;;8.86;100.00;97440.69;5026465;28;20069;-61
2021/10/09 05:07:13;;;;;;;6.18;4.22;;;;;;;9.63;100.00;97564.59;5025140;28;20077;-60
2021/10/09 05:09:42;;;;;;;5.68;4.03;;;;;;;9.64;100.00;97562.63;5026861;28;20050;-60
2021/10/09 05:12:09;;;;;;;5.68;2.83;;;;;;;9.60;100.00;97559.75;5026811;28;20053;-61
2021/10/09 05:14:36;;;;;;;4.90;3.65;;;;;;;9.53;100.00;97548.47;5027116;28;20080;-60
2021/10/09 05:17:03;;;;;;;5.95;3.65;;;;;;;9.70;100.00;97558.44;5026493;28;20050;-62
2021/10/09 05:19:30;;;;;;;6.93;4.30;;;;;;;9.64;100.00;97566.19;5026276;28;20091;-61
2021/10/09 05:21:56;;;;;;;5.07;3.30;;;;;;;9.06;100.00;97483.91;5026460;28;20080;-61
2021/10/09 05:24:23;;;;;;;6.28;2.85;;;;;;;9.77;100.00;97570.50;5026676;28;20057;-63
2021/10/09 05:26:50;;;;;;;3.70;2.45;;;;;;;9.73;100.00;97569.63;5025834;28;20062;-60
2021/10/09 05:29:18;;;;;;;8.15;3.20;;;;;;;9.67;100.00;97564.69;5027080;28;20057;-59
2021/10/09 05:31:48;;;;;;;4.50;2.13;;;;;;;9.75;100.00;97572.84;5026149;28;20057;-61
2021/10/09 05:34:15;;;;;;;2.25;1.50;;;;;;;9.78;100.00;97572.16;5025959;28;20434;-60
2021/10/09 05:36:42;;;;;;;5.32;2.55;;;;;;;9.05;100.00;97482.28;5024587;28;20050;-61
2021/10/09 05:39:09;;;;;;;3.08;1.98;;;;;;;9.75;100.00;97572.84;5025919;28;20418;-59
2021/10/09 05:41:35;;;;;;;3.45;2.03;;;;;;;9.33;100.00;97516.28;5024147;28;20512;-60
2021/10/09 05:44:03;;;;;;;2.42;2.22;;;;;;;9.83;100.00;97569.09;5026251;28;20170;-60
2021/10/09 05:46:30;;;;;;;3.38;2.30;;;;;;;9.86;100.00;97579.50;5026365;28;20049;-59
2021/10/09 05:48:58;;;;;;;5.40;2.15;;;;;;;9.72;100.00;97579.06;5026223;28;20144;-59
2021/10/09 05:51:40;;;;;;;2.00;1.80;;;;;;;9.56;100.00;97561.63;5025883;28;20057;-59
2021/10/09 05:56:51;;;;;;;3.17;1.85;;;;;;;9.72;100.00;97590.13;5026053;28;20057;-59
2021/10/09 07:01:26;;;;;;;27.40;16.25;;;;;;;10.14;100.00;97630.13;5015275;28;20793;-61
2021/10/09 07:03:53;;;;;;;24.73;14.02;;;;;;;10.12;100.00;97615.00;5021994;28;20061;-62
2021/10/09 07:06:21;;;;;;;16.92;11.38;;;;;;;10.29;100.00;97648.72;5022828;28;20078;-62
2021/10/09 07:08:48;;;;;;;8.00;5.40;;;;;;;9.77;100.00;97595.41;5022820;28;20419;-60
2021/10/09 07:11:16;;;;;;;11.88;7.50;;;;;;;10.25;100.00;97658.91;5022701;28;20041;-61
2021/10/09 07:13:42;;;;;;;10.45;6.57;;;;;;;10.20;100.00;97658.34;5021907;28;20049;-61
2021/10/09 07:16:09;;;;;;;9.27;5.80;;;;;;;10.30;100.00;97743.69;5022625;28;20049;-62
2021/10/09 07:18:36;;;;;;;9.85;5.63;;;;;;;10.38;100.00;97652.16;5023230;28;20054;-60
2021/10/09 07:21:03;;;;;;;9.82;5.40;;;;;;;10.55;100.00;97657.38;5022914;28;20053;-60
2021/10/09 07:23:29;;;;;;;6.18;4.03;;;;;;;9.79;99.65;97523.13;5022772;28;20539;-61
2021/10/09 07:25:56;;;;;;;5.82;3.55;;;;;;;10.49;98.41;97613.66;5020692;28;20053;-58
2021/10/09 07:28:23;;;;;;;3.78;3.35;;;;;;;10.87;100.00;97657.38;5019311;28;20061;-62
2021/10/09 07:30:49;;;;;;;4.72;2.90;;;;;;;10.26;97.65;97532.34;5022213;28;20384;-60
2021/10/09 07:33:16;;;;;;;4.70;3.78;;;;;;;11.06;97.92;97654.72;5023766;28;20057;-59
2021/10/09 07:35:43;;;;;;;3.42;3.10;;;;;;;10.54;97.03;97575.41;5022780;28;20144;-59
2021/10/09 07:38:11;;;;;;;4.20;3.50;;;;;;;11.24;96.45;97667.84;5020116;28;20053;-59
2021/10/09 07:40:38;;;;;;;5.47;3.42;;;;;;;11.37;94.30;97687.97;5027862;28;20496;-62
2021/10/09 07:43:04;;;;;;;5.57;3.05;;;;;;;11.06;93.18;97613.13;5034272;28;20052;-59
2021/10/09 07:45:33;;;;;;;4.55;2.55;;;;;;;10.69;92.45;97549.69;5022069;28;20068;-59
2021/10/09 07:48:00;;;;;;;4.97;3.17;;;;;;;11.03;93.13;97561.19;5020643;28;20045;-61
2021/10/09 07:50:27;;;;;;;3.97;3.35;;;;;;;11.58;92.61;97661.53;5022476;28;20103;-58
2021/10/09 07:52:54;;;;;;;2.72;2.40;;;;;;;11.60;90.10;97663.94;5020541;28;20049;-62
2021/10/09 07:55:21;;;;;;;4.80;3.00;;;;;;;11.47;91.60;97654.13;5022404;28;20147;-60
2021/10/09 07:57:48;;;;;;;2.05;1.75;;;;;;;11.41;93.38;97661.13;5022328;28;20539;-61
2021/10/09 08:00:15;;;;;;;4.60;3.17;;;;;;;11.29;94.00;97608.50;5025035;28;20045;-62
2021/10/09 08:02:52;;;;;;;5.63;3.50;;;;;;;11.73;94.36;97651.56;5021480;28;20057;-62
2021/10/09 08:05:20;;;;;;;4.28;2.78;;;;;;;11.79;93.52;97650.13;5022410;28;20053;-61
2021/10/09 08:07:47;;;;;;;2.55;2.05;;;;;;;11.94;92.28;97650.06;5022554;28;20056;-61
2021/10/09 08:10:14;;;;;;;6.05;3.28;;;;;;;11.52;91.10;97567.84;5022996;28;20085;-61
2021/10/09 08:12:41;;;;;;;4.05;3.13;;;;;;;11.80;92.79;97623.97;5022708;28;20056;-60
2021/10/09 08:15:09;;;;;;;3.28;2.53;;;;;;;10.90;91.59;97529.19;5022155;28;20056;-61
2021/10/09 08:17:37;;;;;;;5.50;2.33;;;;;;;10.04;92.30;97392.56;5020890;28;20055;-63
2021/10/09 08:20:05;;;;;;;4.82;2.47;;;;;;;11.45;91.68;97621.19;5022913;28;20053;-58
2021/10/09 08:22:36;;;;;;;6.70;3.20;;;;;;;11.66;93.48;97656.97;5022757;28;20052;-59
2021/10/09 08:41:10;;;;;;;2.80;1.60;;;;;;;11.23;92.04;97684.84;5013313;28;20053;-63
2021/10/09 08:43:37;;;;;;;3.15;1.77;;;;;;;11.00;92.02;97597.94;5018296;28;20531;-59
2021/10/09 08:46:05;;;;;;;3.15;2.10;;;;;;;11.20;92.92;97628.13;5021601;28;20057;-60
2021/10/09 08:48:40;;;;;;;2.25;1.90;;;;;;;11.40;92.01;97665.84;5022174;28;20049;-63
2021/10/09 08:51:08;;;;;;;2.47;1.90;;;;;;;11.00;91.46;97584.06;5019340;28;20057;-61
2021/10/09 08:53:40;;;;;;;3.22;2.42;;;;;;;11.53;91.19;97674.88;5020414;28;20548;-62
2021/10/09 08:56:07;;;;;;;3.70;2.20;;;;;;;8.59;91.50;97181.88;5021947;28;20068;-63
2021/10/09 08:58:37;;;;;;;4.70;1.90;;;;;;;11.73;89.50;97679.31;5022494;28;20064;-63
2021/10/09 09:26:21;;;;;;;7.45;3.28;;;;;;;12.02;89.07;97687.13;5025748;28;20140;-62
2021/10/09 09:40:12;;;;;;;7.95;3.90;;;;;;;12.37;88.33;97682.31;5023962;28;20061;-63
2021/10/09 09:42:45;;;;;;;6.80;3.00;;;;;;;12.32;86.72;97629.81;5022304;28;20053;-63
2021/10/09 09:45:19;;;;;;;5.63;3.50;;;;;;;12.68;84.73;97654.31;5023673;28;20500;-62
2021/10/09 09:47:46;;;;;;;4.40;3.05;;;;;;;12.85;83.60;97681.63;5023909;28;20132;-60
2021/10/09 09:50:14;;;;;;;4.05;3.38;;;;;;;13.03;86.25;97685.59;5016056;28;20405;-58
2021/10/09 09:52:42;;;;;;;2.58;1.40;;;;;;;13.11;84.52;97690.09;5004268;28;20061;-59
2021/10/09 09:55:15;;;;;;;2.78;1.92;;;;;;;13.31;85.41;97686.06;5005805;28;20054;-58
2021/10/09 09:58:00;;;;;;;8.50;4.63;;;;;;;13.32;84.48;97690.47;5004350;28;20152;-64
2021/10/09 10:00:32;;;;;;;8.02;3.92;;;;;;;13.09;86.40;97694.41;5005094;28;20123;-60
2021/10/09 10:03:01;;;;;;;5.13;2.42;;;;;;;13.17;87.71;97683.06;5003637;28;20583;-59
2021/10/09 10:05:28;;;;;;;4.55;3.22;;;;;;;11.25;87.30;97383.03;5004859;28;20054;-61
2021/10/09 10:07:56;;;;;;;4.35;3.08;;;;;;;13.21;87.77;97728.44;5003630;28;20057;-59
2021/10/09 10:10:23;;;;;;;4.03;2.58;;;;;;;13.13;86.96;97732.28;5003574;28;20112;-58
2021/10/09 10:12:55;;;;;;;3.05;2.10;;;;;;;12.93;88.02;97647.22;5005488;28;20512;-60
2021/10/09 10:15:28;;;;;;;2.38;2.17;;;;;;;12.85;87.66;97662.19;5005463;28;20054;-57
2021/10/09 10:17:56;;;;;;;5.87;2.00;;;;;;;12.99;89.27;97698.59;5003683;28;20959;-61
2021/10/09 10:20:43;;;;;;;6.03;4.13;;;;;;;13.02;88.89;97703.47;5004778;28;20108;-60
2021/10/09 10:23:10;;;;;;;6.88;3.53;;;;;;;10.96;88.48;97389.16;5004835;28;20062;-60
2021/10/09 10:25:38;;;;;;;6.70;2.80;;;;;;;12.69;87.44;97689.31;5004891;28;20057;-65
2021/10/09 10:28:14;;;;;;;8.48;4.88;;;;;;;12.82;87.68;97653.81;5004583;28;20068;-60
2021/10/09 10:30:42;;;;;;;7.15;4.13;;;;;;;13.01;87.90;97678.81;5005057;28;20058;-61
2021/10/09 10:33:10;;;;;;;4.30;2.80;;;;;;;13.18;86.02;97681.09;5009419;28;20045;-59
2021/10/09 10:35:36;;;;;;;6.20;3.25;;;;;;;13.27;89.77;97682.44;5023643;28;20061;-61
2021/10/09 10:38:24;;;;;;;4.22;3.03;;;;;;;13.33;89.46;97664.25;5024819;28;20053;-62
2021/10/09 10:40:58;;;;;;;4.38;2.83;;;;;;;13.58;87.00;97687.69;5024814;28;20077;-60
2021/10/09 10:43:32;;;;;;;;;;;;;;;13.60;85.56;97681.75;5024002;28;20053;-61
2021/10/09 10:51:53;;;;;;;2.40;2.15;;;;;;;13.33;84.89;97692.06;5005076;28;20520;-62
2021/10/09 10:57:04;;;;;;;3.90;2.80;;;;;;;13.07;84.80;97689.22;5005187;28;20054;-62
2021/10/09 10:59:31;;;;;;;4.07;2.58;;;;;;;12.99;86.06;97679.13;5004721;28;20061;-62
2021/10/09 11:02:11;;;;;;;6.32;3.53;;;;;;;12.96;86.40;97679.84;5004760;28;20042;-60
2021/10/09 11:04:40;;;;;;;4.63;2.80;;;;;;;13.01;87.42;97679.59;5004948;28;20050;-61
2021/10/09 11:07:08;;;;;;;6.18;3.20;;;;;;;12.64;85.84;97622.91;5004609;28;20053;-60
2021/10/09 11:09:37;;;;;;;3.75;2.83;;;;;;;12.88;85.50;97636.41;5004405;28;20050;-60
2021/10/09 11:12:17;;;;;;;3.83;2.28;;;;;;;13.26;84.58;97668.91;5004639;28;20064;-60
2021/10/09 11:14:44;;;;;;;2.20;2.10;;;;;;;13.21;83.97;97678.38;5019736;28;20060;-60
2021/10/09 11:17:11;;;;;;;2.85;2.25;;;;;;;12.81;83.31;97602.13;5004455;28;20046;-60
2021/10/09 11:19:48;;;;;;;2.90;2.22;;;;;;;13.23;82.76;97669.66;5003260;28;20066;-62
2021/10/09 11:22:20;;;;;;;2.78;2.40;;;;;;;12.92;82.60;97619.78;5004503;28;20062;-60
2021/10/09 11:24:49;;;;;;;2.22;1.88;;;;;;;13.38;84.15;97666.72;5003198;28;20076;-59
2021/10/09 11:27:17;;;;;;;2.40;1.90;;;;;;;13.38;83.65;97658.38;5011984;28;20049;-61
2021/10/09 11:30:10;;;;;;;5.32;2.42;;;;;;;13.27;83.23;97665.75;5023774;28;20452;-62
2021/10/09 11:32:39;;;;;;;2.17;1.80;;;;;;;12.97;82.41;97611.97;5024042;28;20580;-63
2021/10/09 11:35:08;;;;;;;5.63;2.88;;;;;;;13.40;82.14;97666.34;5023614;28;20148;-61
2021/10/09 11:37:43;;;;;;;3.65;2.90;;;;;;;13.10;81.30;97649.53;5020918;28;20058;-60
2021/10/09 11:40:10;;;;;;;6.55;3.20;;;;;;;13.39;80.86;97673.88;5021752;28;20531;-63
2021/10/09 11:42:52;;;;;;;4.63;2.50;;;;;;;13.53;80.81;97662.97;5024003;28;20061;-64
2021/10/09 11:45:41;;;;;;;2.20;1.90;;;;;;;13.53;81.54;97662.19;5022983;28;20136;-66
2021/10/09 11:56:24;;;;;;;13.20;4.38;;;;;;;13.56;80.23;97617.66;5023137;28;20054;-65
2021/10/09 11:58:59;;;;;;;7.05;3.10;;;;;;;13.82;79.25;97652.22;5022065;28;20049;-64
2021/10/09 12:01:41;;;;;;;6.68;3.97;;;;;;;13.99;79.92;97652.47;5022001;28;20061;-65
2021/10/09 12:04:23;;;;;;;7.97;4.55;;;;;;;13.13;80.43;97518.09;5022507;28;20057;-64
2021/10/09 12:06:56;;;;;;;4.97;3.17;;;;;;;14.04;80.46;97649.38;5024020;28;20064;-65
2021/10/09 12:09:35;;;;;;;3.53;2.92;;;;;;;14.06;79.03;97646.22;5022076;28;20068;-65
2021/10/09 12:12:18;;;;;;;6.28;3.75;;;;;;;13.93;77.36;97586.34;5023548;28;20056;-65
2021/10/09 12:14:47;;;;;;;4.20;2.67;;;;;;;14.06;77.63;97613.59;5022078;28;20053;-66
2021/10/09 12:17:14;;;;;;;4.00;2.28;;;;;;;14.37;77.55;97645.84;5021846;28;20049;-65
2021/10/09 12:19:41;;;;;;;6.07;2.67;;;;;;;14.41;75.36;97633.56;5023710;28;20052;-65
2021/10/09 12:22:14;;;;;;;5.85;4.13;;;;;;;14.53;74.65;97650.00;5022591;28;20144;-65
2021/10/09 12:24:46;;;;;;;3.58;2.50;;;;;;;14.61;75.60;97645.31;5022068;28;20061;-65
2021/10/09 12:27:19;;;;;;;2.27;1.90;;;;;;;14.73;73.74;97639.47;5021274;28;20127;-65
2021/10/09 12:30:01;;;;;;;3.03;2.70;;;;;;;14.30;74.08;97556.56;5021517;28;20672;-64
2021/10/09 12:32:29;;;;;;;3.33;2.53;;;;;;;14.98;71.32;97638.50;5021679;28;20049;-64
2021/10/09 12:35:11;;;;;;;5.20;3.25;;;;;;;14.86;71.89;97599.75;5023549;28;20050;-64
2021/10/09 12:37:59;;;;;;;7.05;4.45;;;;;;;14.89;71.69;97642.84;5023077;28;20530;-65
2021/10/09 12:40:28;;;;;;;6.25;3.60;;;;;;;13.58;75.54;97606.97;5023234;28;20049;-64
2021/10/09 12:43:00;;;;;;;5.88;3.22;;;;;;;14.06;75.21;97644.22;5021865;28;20064;-64
2021/10/09 12:45:28;;;;;;;3.05;2.28;;;;;;;14.21;71.28;97648.78;5022698;28;20440;-64
2021/10/09 12:47:58;;;;;;;2.95;2.03;;;;;;;14.33;73.84;97651.38;5021691;28;20543;-64
2021/10/09 12:50:29;;;;;;;2.30;2.10;;;;;;;14.37;73.94;97643.06;5021541;28;20542;-64
2021/10/09 12:52:56;;;;;;;6.55;3.47;;;;;;;14.44;75.05;97651.50;5024976;28;20080;-64
2021/10/09 12:55:26;;;;;;;6.75;4.22;;;;;;;14.43;74.82;97638.75;5027028;28;20049;-65
2021/10/09 12:57:55;;;;;;;4.22;2.88;;;;;;;14.32;75.87;97643.41;5025730;28;20064;-64
2021/10/09 13:00:24;;;;;;;6.32;4.05;;;;;;;13.93;74.35;97575.19;5025114;28;20056;-64
2021/10/09 13:02:51;;;;;;;6.82;3.47;;;;;;;14.11;72.69;97637.53;5025388;28;20075;-64
2021/10/09 13:05:20;;;;;;;3.17;2.65;;;;;;;13.91;69.82;97622.16;5026668;28;20564;-66
2021/10/09 13:07:48;;;;;;;4.43;2.47;;;;;;;13.98;73.67;97639.75;5026716;28;20430;-66
2021/10/09 13:10:15;;;;;;;4.57;2.88;;;;;;;13.38;71.83;97544.28;5026590;28;20609;-65
2021/10/09 13:12:42;;;;;;;3.42;2.40;;;;;;;13.97;72.90;97642.91;5025200;28;20049;-66
2021/10/09 13:15:09;;;;;;;15.65;5.53;;;;;;;13.69;71.10;97641.34;5019900;28;20091;-65
2021/10/09 13:17:37;;;;;;;5.72;3.38;;;;;;;13.58;73.25;97645.13;5005512;28;20580;-65
2021/10/09 13:20:05;;;;;;;10.95;5.53;;;;;;;13.49;73.30;97645.41;5006845;28;20076;-64
2021/10/09 13:22:32;;;;;;;11.40;5.38;;;;;;;13.54;74.13;97652.66;5006753;28;20050;-64
2021/10/09 13:25:15;;;;;;;6.18;3.70;;;;;;;13.40;74.53;97658.00;5005304;28;20089;-65
2021/10/09 13:27:42;;;;;;;10.82;5.50;;;;;;;12.96;75.42;97635.34;5004750;28;20069;-65
2021/10/09 13:30:10;;;;;;;8.15;4.80;;;;;;;12.89;75.21;97613.00;5005066;28;20057;-65
2021/10/09 13:32:44;;;;;;;5.18;3.42;;;;;;;13.05;76.92;97654.63;5006386;28;20580;-66
2021/10/09 13:35:11;;;;;;;4.47;2.85;;;;;;;12.83;77.91;97633.16;5004822;28;20054;-67
2021/10/09 13:37:53;;;;;;;5.63;2.60;;;;;;;12.88;77.94;97652.31;5007233;28;20431;-66
2021/10/09 13:40:20;;;;;;;12.45;4.28;;;;;;;12.92;78.67;97645.63;5007092;28;20136;-66
2021/10/09 13:42:48;;;;;;;16.35;6.05;;;;;;;12.77;78.60;97649.31;5006564;28;20054;-66
2021/10/09 13:45:15;;;;;;;8.10;4.45;;;;;;;12.92;81.22;97653.97;5004703;28;20064;-66
2021/10/09 13:47:42;;;;;;;10.45;5.10;;;;;;;13.04;79.89;97651.03;5004811;28;20111;-66
2021/10/09 13:50:10;;;;;;;4.10;2.97;;;;;;;12.57;80.84;97658.88;5008252;28;20103;-66
2021/10/09 13:52:37;;;;;;;3.03;2.72;;;;;;;12.22;82.17;97655.41;5026100;28;20049;-66
2021/10/09 13:55:04;;;;;;;3.97;2.28;;;;;;;11.27;84.19;97536.00;5026160;28;20089;-65
2021/10/09 13:57:31;;;;;;;1.90;1.75;;;;;;;11.12;85.67;97534.06;5024695;28;20049;-65
2021/10/09 13:59:58;;;;;;;4.25;2.78;;;;;;;11.92;86.90;97660.72;5025503;28;20064;-66
2021/10/09 14:02:25;;;;;;;7.88;4.03;;;;;;;12.12;85.67;97665.13;5025280;28;20133;-66
2021/10/09 14:04:52;;;;;;;5.95;3.50;;;;;;;12.20;84.97;97666.88;5024000;28;20057;-66
2021/10/09 14:07:19;;;;;;;7.35;2.90;;;;;;;12.30;84.70;97671.03;5025568;28;20079;-67
2021/10/09 14:09:46;;;;;;;2.70;2.03;;;;;;;11.96;84.52;97656.06;5025801;28;20149;-67
2021/10/09 14:12:14;;;;;;;2.95;2.63;;;;;;;11.04;86.37;97551.69;5026151;28;20084;-67